Time;durP1;ratioP1;P1;durP2;ratioP2;P2;SDS_P1;SDS_P2;PMS_P1;PMS_P2;Temp;Humidity;BMP_temperature;BMP_pressure;BME280_temperature;BME280_humidity;BME280_pressure;Samples;Min_cycle;Max_cycle;Signal;HPM_P1;HPM_P2
2021/01/13 00:02:58;;;;;;;59.37;26.07;;;;;;;-0.86;63.67;99838.69;1726817;81;23073;-92
2021/01/13 00:05:40;;;;;;;46.93;23.67;;;;;;;-0.93;63.97;99839.66;1786565;78;22989;-91
2021/01/13 00:08:10;;;;;;;51.08;24.37;;;;;;;-0.95;63.98;99838.95;1714809;81;21215;-86
2021/01/13 00:10:52;;;;;;;36.17;21.13;;;;;;;-0.88;64.02;99840.60;1703111;81;21155;-93
2021/01/13 00:14:19;;;;;;;29.47;18.80;;;;;;;-0.82;64.23;99830.92;1798920;78;23020;-95
2021/01/13 00:17:35;;;;;;;32.53;17.93;;;;;;;-0.85;64.45;99825.48;1730350;81;21279;-94
2021/01/13 00:21:54;;;;;;;;;;;;;;;;;;;;;
2021/01/13 00:28:51;;;;;;;21.73;16.12;;;;;;;-1.01;65.24;99806.28;1591994;89;21210;-95
2021/01/13 00:32:10;;;;;;;36.17;17.17;;;;;;;-1.07;65.32;99805.98;1655936;85;21252;-93
2021/01/13 00:35:15;;;;;;;39.87;18.37;;;;;;;-1.10;65.39;99810.14;1525925;89;21184;-91
2021/01/13 00:54:09;;;;;;;15.03;13.07;;;;;;;-1.11;64.64;99755.70;1842070;75;23440;-94
2021/01/13 01:28:58;;;;;;;21.57;11.10;;;;;;;-1.73;63.89;99774.26;1735966;77;21280;-90
2021/01/13 01:31:38;;;;;;;64.27;18.77;;;;;;;-1.74;63.77;99763.92;1810773;78;22918;-88
2021/01/13 01:34:06;;;;;;;70.60;23.50;;;;;;;-1.74;63.55;99762.62;1797296;79;21313;-89
2021/01/13 01:36:55;;;;;;;54.95;20.55;;;;;;;-1.77;63.70;99741.50;1792029;79;21337;-86
2021/01/13 01:39:24;;;;;;;27.97;13.53;;;;;;;-1.74;63.63;99745.15;1799301;78;21136;-88
2021/01/13 01:41:54;;;;;;;21.47;12.90;;;;;;;-1.69;63.53;99731.24;1790578;78;21147;-87
2021/01/13 01:44:22;;;;;;;16.83;11.50;;;;;;;-1.62;63.13;99732.86;1799794;78;21269;-85
2021/01/13 01:46:53;;;;;;;18.83;11.80;;;;;;;-1.66;62.95;99717.09;1798984;79;21178;-89
2021/01/13 01:49:26;;;;;;;16.70;12.67;;;;;;;-1.68;63.16;99721.61;1787917;80;21685;-88
2021/01/13 01:52:11;;;;;;;18.47;11.40;;;;;;;-1.63;63.24;99716.84;1795468;79;21167;-89
2021/01/13 01:54:44;;;;;;;14.27;10.90;;;;;;;-1.67;62.97;99722.80;1761246;80;21143;-89
2021/01/13 01:57:12;;;;;;;16.37;11.80;;;;;;;-1.66;62.75;99724.44;1790175;80;21158;-93
2021/01/13 02:00:11;;;;;;;15.43;12.60;;;;;;;-1.68;62.96;99720.30;1764305;81;21132;-94
2021/01/13 02:03:03;;;;;;;;;;;;;;;;;;;;;
2021/01/13 02:05:35;;;;;;;15.47;10.90;;;;;;;-1.66;62.35;99713.16;1721898;82;21191;-94
2021/01/13 02:08:43;;;;;;;17.73;11.70;;;;;;;-1.65;61.98;99698.67;1721618;81;21152;-92
2021/01/13 02:22:26;;;;;;;21.90;12.30;;;;;;;-1.71;62.41;99683.96;1798751;78;23190;-90
2021/01/13 02:26:12;;;;;;;20.72;13.30;;;;;;;-1.81;62.69;99679.52;1772766;79;21149;-89
2021/01/13 02:29:28;;;;;;;19.57;12.10;;;;;;;-1.62;62.10;99668.84;1758369;79;22873;-91
2021/01/13 02:43:09;;;;;;;15.80;10.77;;;;;;;-1.64;61.60;99658.98;1739505;78;959246;-86
2021/01/13 02:46:03;;;;;;;16.57;14.73;;;;;;;-1.61;61.33;99660.88;1763505;79;28481;-85
2021/01/13 02:48:29;;;;;;;16.57;12.87;;;;;;;-1.49;60.96;99634.19;1723027;82;21173;-86
2021/01/13 02:50:58;;;;;;;17.90;11.93;;;;;;;-1.33;60.28;99626.39;1688077;82;21141;-87
2021/01/13 02:53:49;;;;;;;14.10;10.53;;;;;;;-1.32;60.21;99633.27;1709317;82;21187;-89
2021/01/13 02:56:40;;;;;;;15.23;11.17;;;;;;;-1.35;59.93;99635.67;1736626;81;21153;-89
2021/01/13 02:59:10;;;;;;;14.67;10.53;;;;;;;-1.41;60.03;99634.39;1725001;81;21160;-90
2021/01/13 03:01:41;;;;;;;15.73;11.83;;;;;;;-1.47;60.23;99631.45;1681447;84;21188;-92
2021/01/13 03:04:12;;;;;;;13.53;10.90;;;;;;;-1.51;60.16;99631.36;1667179;83;21150;-91
2021/01/13 03:06:48;;;;;;;18.47;13.17;;;;;;;-1.52;60.25;99633.64;1732566;81;21728;-89
2021/01/13 03:09:21;;;;;;;17.60;11.87;;;;;;;-1.49;60.33;99633.37;1740091;81;21165;-90
2021/01/13 03:12:12;;;;;;;17.57;12.23;;;;;;;-1.49;60.37;99629.45;1729955;82;21193;-86
2021/01/13 03:14:39;;;;;;;16.30;10.50;;;;;;;-1.45;60.41;99643.45;1722656;82;21270;-86
2021/01/13 03:17:11;;;;;;;;;;;;;;;-1.49;60.18;99637.29;1737236;82;21666;-87
2021/01/13 03:19:47;;;;;;;20.80;11.73;;;;;;;-1.56;60.43;99630.45;1739714;82;20467;-87
2021/01/13 03:22:17;;;;;;;15.00;11.00;;;;;;;-1.66;60.53;99632.16;1725723;82;21722;-85
2021/01/13 03:25:07;;;;;;;14.97;11.70;;;;;;;-1.76;60.97;99622.47;1731785;80;21149;-94
2021/01/13 03:27:47;;;;;;;17.00;12.43;;;;;;;-1.77;61.20;99614.78;1731853;80;21184;-93
2021/01/13 03:30:31;;;;;;;;;;;;;;;-1.76;61.29;99610.70;1735587;80;21150;-94
2021/01/13 03:34:24;;;;;;;14.83;10.67;;;;;;;-1.68;61.27;99606.15;1714983;79;20154;-93
2021/01/13 03:37:38;;;;;;;16.20;10.50;;;;;;;-1.73;61.38;99603.11;1709988;80;21307;-93
2021/01/13 03:40:42;;;;;;;19.03;11.07;;;;;;;-1.65;61.18;99591.53;1828256;75;23570;-94
2021/01/13 04:07:12;;;;;;;15.60;11.20;;;;;;;-1.72;61.09;99564.73;1753963;77;21143;-96
2021/01/13 04:20:51;;;;;;;;;;;;;;;;;;;;;
2021/01/13 04:23:23;;;;;;;13.80;9.77;;;;;;;-1.90;61.86;99531.82;1811249;77;23065;-95
2021/01/13 04:25:57;;;;;;;14.63;11.20;;;;;;;-1.89;61.78;99543.45;1761430;79;21108;-94
2021/01/13 04:28:39;;;;;;;19.47;11.40;;;;;;;-1.87;61.82;99549.38;1738433;80;21162;-92
2021/01/13 04:31:08;;;;;;;13.90;11.73;;;;;;;-1.87;61.87;99546.77;1740604;80;21104;-94
2021/01/13 04:33:41;;;;;;;20.57;12.03;;;;;;;-1.83;61.82;99546.88;1711432;80;21286;-95
2021/01/13 04:36:11;;;;;;;15.53;11.70;;;;;;;-1.79;61.79;99536.98;1750889;80;21207;-95
2021/01/13 04:38:40;;;;;;;15.50;11.50;;;;;;;-1.72;61.79;99542.05;1683897;82;21621;-96
2021/01/13 04:41:11;;;;;;;19.00;12.00;;;;;;;-1.66;61.70;99550.66;1696850;82;21179;-94
2021/01/13 04:44:12;;;;;;;;;;;;;;;;;;;;;
2021/01/13 04:47:02;;;;;;;14.87;10.17;;;;;;;-1.52;61.27;99536.45;1819033;75;23260;-89
2021/01/13 04:49:48;;;;;;;15.97;11.97;;;;;;;-1.58;61.22;99531.75;1793305;78;21119;-92
2021/01/13 05:28:11;;;;;;;18.23;12.77;;;;;;;-1.62;62.06;99506.81;1748972;80;21138;-92
2021/01/13 05:30:58;;;;;;;11.73;9.80;;;;;;;-1.54;61.71;99508.31;1736629;81;21106;-92
2021/01/13 05:34:37;;;;;;;;;;;;;;;;;;;;;
2021/01/13 05:38:19;;;;;;;14.87;10.70;;;;;;;-1.57;61.50;99503.34;1681157;85;21174;-95
2021/01/13 05:41:56;;;;;;;;;;;;;;;;;;;;;
2021/01/13 05:55:35;;;;;;;16.90;11.47;;;;;;;-1.58;62.01;99469.03;1578437;86;21406;-87
2021/01/13 05:58:12;;;;;;;18.50;12.27;;;;;;;-1.56;61.77;99473.64;1567891;89;21227;-91
2021/01/13 06:00:46;;;;;;;20.17;13.87;;;;;;;-1.96;61.82;99427.38;1575480;87;21343;-93
2021/01/13 06:03:45;;;;;;;17.87;13.25;;;;;;;-1.60;61.96;99481.38;1584554;88;21175;-89
2021/01/13 06:06:16;;;;;;;21.93;14.73;;;;;;;-1.63;61.97;99486.88;1549196;90;21240;-92
2021/01/13 06:09:02;;;;;;;19.77;13.23;;;;;;;-1.65;62.20;99494.84;1510914;93;21298;-96
2021/01/13 06:11:52;;;;;;;18.83;13.13;;;;;;;-1.60;62.35;99470.92;1836327;77;22813;-96
2021/01/13 06:14:55;;;;;;;20.37;13.93;;;;;;;-1.60;62.24;99477.00;1817441;77;21187;-94
2021/01/13 06:18:12;;;;;;;18.37;12.57;;;;;;;-1.51;62.12;99481.89;1791140;77;21137;-93
2021/01/13 06:21:30;;;;;;;21.03;13.63;;;;;;;-1.53;62.21;99474.67;1802452;78;21118;-92
2021/01/13 06:35:40;;;;;;;19.33;14.33;;;;;;;-1.54;62.42;99475.64;1825413;77;22318;-94
2021/01/13 06:39:14;;;;;;;18.87;12.83;;;;;;;-1.62;62.56;99480.67;1788737;78;21117;-95
2021/01/13 06:42:32;;;;;;;18.42;14.07;;;;;;;-1.54;62.53;99473.03;1754670;79;21205;-95
2021/01/13 06:55:59;;;;;;;28.27;18.13;;;;;;;-1.45;62.56;99450.48;1819484;77;24759;-91
2021/01/13 06:58:32;;;;;;;24.77;16.53;;;;;;;-1.47;62.64;99455.02;1787498;78;21144;-89
2021/01/13 07:01:34;;;;;;;24.07;15.77;;;;;;;-1.33;62.62;99453.34;1814537;78;23592;-90
2021/01/13 07:04:05;;;;;;;25.25;16.32;;;;;;;-1.36;62.66;99456.22;1734602;79;21222;-90
2021/01/13 07:06:32;;;;;;;22.93;15.47;;;;;;;-1.29;62.46;99447.38;1700242;79;21159;-91
2021/01/13 07:09:14;;;;;;;24.33;17.67;;;;;;;-1.25;62.35;99447.45;1683702;81;21740;-89
2021/01/13 07:12:16;;;;;;;26.47;17.53;;;;;;;-1.21;62.25;99451.44;1644359;85;21155;-85
2021/01/13 07:14:49;;;;;;;28.53;17.70;;;;;;;-1.16;62.14;99450.56;1686629;84;21175;-91
2021/01/13 07:17:22;;;;;;;24.43;17.00;;;;;;;-1.18;62.09;99439.41;1666623;85;21322;-85
2021/01/13 07:20:14;;;;;;;22.23;15.30;;;;;;;-1.17;62.26;99435.83;1813210;77;22921;-88
2021/01/13 07:22:43;;;;;;;23.27;16.80;;;;;;;-1.20;62.40;99447.39;1793325;78;21273;-92
2021/01/13 07:25:13;;;;;;;22.73;14.93;;;;;;;-1.18;62.28;99436.31;1712187;82;21194;-90
2021/01/13 07:27:45;;;;;;;22.70;16.30;;;;;;;-1.16;62.32;99438.80;1724896;81;21236;-91
2021/01/13 07:30:13;;;;;;;24.07;17.53;;;;;;;-1.16;62.33;99434.88;1696786;83;21735;-90
2021/01/13 07:32:51;;;;;;;23.47;15.73;;;;;;;-1.14;62.37;99438.18;1756443;81;21600;-91
2021/01/13 07:35:18;;;;;;;22.50;16.30;;;;;;;-1.15;62.44;99433.89;1712325;81;21148;-90
2021/01/13 07:37:54;;;;;;;23.80;17.20;;;;;;;-1.13;62.46;99424.16;1687422;84;21204;-88
2021/01/13 07:40:31;;;;;;;31.17;17.50;;;;;;;-1.13;62.50;99415.00;1715767;83;21649;-89
2021/01/13 07:43:08;;;;;;;25.93;16.90;;;;;;;-1.07;62.47;99409.22;1700462;84;21172;-89
2021/01/13 07:45:46;;;;;;;26.30;17.93;;;;;;;-1.03;62.40;99404.05;1712210;83;21176;-89
2021/01/13 07:48:35;;;;;;;23.17;16.27;;;;;;;-1.03;62.36;99406.67;1705570;82;21190;-87
2021/01/13 07:51:07;;;;;;;21.80;15.97;;;;;;;-1.00;62.28;99395.95;1671238;82;21200;-89
2021/01/13 07:53:38;;;;;;;24.93;17.87;;;;;;;-0.99;62.31;99398.07;1664869;84;21860;-89
2021/01/13 07:56:10;;;;;;;25.17;17.87;;;;;;;-0.99;62.25;99397.58;1658421;84;21165;-88
2021/01/13 07:58:36;;;;;;;26.47;17.23;;;;;;;-0.99;62.29;99379.27;1692552;84;21327;-88
2021/01/13 08:01:33;;;;;;;25.63;18.20;;;;;;;-1.03;62.27;99378.39;1697256;84;21193;-88
2021/01/13 08:04:37;;;;;;;20.53;14.87;;;;;;;-1.03;62.42;99379.20;1696653;84;21952;-90
2021/01/13 08:07:16;;;;;;;27.13;17.73;;;;;;;-1.05;62.41;99377.70;1696784;84;21163;-91
2021/01/13 08:09:49;;;;;;;;;;;;;;;-1.00;62.31;99369.78;1703784;84;21200;-87
2021/01/13 08:12:39;;;;;;;31.05;19.57;;;;;;;-0.99;62.32;99367.50;1718608;81;20273;-89
2021/01/13 08:16:16;;;;;;;27.13;19.23;;;;;;;-0.97;62.39;99361.31;1810584;78;22593;-88
2021/01/13 08:19:39;;;;;;;30.27;19.20;;;;;;;-0.99;62.15;99369.30;1774221;78;21615;-83
2021/01/13 08:22:19;;;;;;;29.90;18.80;;;;;;;-0.97;62.05;99371.78;1760885;79;21593;-85
2021/01/13 08:24:50;;;;;;;31.87;20.10;;;;;;;-0.99;62.16;99355.73;1693758;82;21197;-85
2021/01/13 08:27:17;;;;;;;29.13;19.83;;;;;;;-0.86;62.07;99346.30;1693320;82;21195;-84
2021/01/13 08:29:47;;;;;;;31.93;18.73;;;;;;;-0.82;61.97;99337.69;1679863;82;22325;-85
2021/01/13 08:32:50;;;;;;;28.40;18.07;;;;;;;-0.76;61.82;99329.27;1654943;84;21299;-95
2021/01/13 08:46:09;;;;;;;31.17;19.53;;;;;;;-0.73;60.85;99314.61;1744022;79;21172;-90
2021/01/13 08:49:15;;;;;;;26.37;17.30;;;;;;;-0.81;60.99;99328.39;1747295;79;21177;-88
2021/01/13 08:52:19;;;;;;;27.63;16.60;;;;;;;-0.82;61.31;99323.30;1738159;80;21135;-91
2021/01/13 08:55:15;;;;;;;26.77;15.60;;;;;;;-0.75;61.22;99317.00;1759504;79;21411;-91
2021/01/13 08:58:33;;;;;;;24.77;15.03;;;;;;;-0.79;60.95;99317.80;1740103;79;21577;-87
2021/01/13 09:01:37;;;;;;;21.53;15.23;;;;;;;-0.85;61.10;99304.79;1720536;82;21145;-87
2021/01/13 09:04:06;;;;;;;23.50;15.83;;;;;;;-0.84;60.95;99294.65;1721393;82;21330;-85
2021/01/13 09:06:34;;;;;;;23.50;16.07;;;;;;;-0.82;61.07;99291.89;1697451;81;21372;-84
2021/01/13 09:09:09;;;;;;;20.43;12.10;;;;;;;-0.76;60.69;99290.02;1668819;84;21316;-85
2021/01/13 09:11:40;;;;;;;20.40;14.43;;;;;;;-0.78;60.36;99294.56;1673105;84;21249;-84
2021/01/13 09:14:23;;;;;;;29.43;18.17;;;;;;;-0.71;60.57;99279.14;1678024;84;21813;-85
2021/01/13 09:16:55;;;;;;;46.23;25.43;;;;;;;-0.67;60.49;99276.58;1653287;82;21171;-88
2021/01/13 09:19:37;;;;;;;15.97;12.80;;;;;;;-0.57;60.25;99281.78;1649710;85;21164;-89
2021/01/13 09:26:08;;;;;;;18.57;13.67;;;;;;;-0.61;59.52;99281.23;1727502;82;21218;-90
2021/01/13 09:28:57;;;;;;;15.03;11.43;;;;;;;-0.57;59.53;99294.38;1610282;85;21298;-92
2021/01/13 09:32:19;;;;;;;17.80;11.60;;;;;;;-0.53;59.28;99283.95;1718044;81;21206;-90
2021/01/13 09:35:25;;;;;;;18.20;12.27;;;;;;;-0.50;59.30;99286.79;1724815;81;21165;-90
2021/01/13 09:38:30;;;;;;;19.20;12.00;;;;;;;-0.43;59.32;99281.33;1723314;80;21310;-90
2021/01/13 09:41:45;;;;;;;15.23;10.77;;;;;;;-0.41;59.01;99286.75;1722172;81;21197;-91
2021/01/13 09:44:42;;;;;;;13.90;10.97;;;;;;;-0.40;59.02;99288.88;1735811;81;21159;-89
2021/01/13 09:47:42;;;;;;;10.63;7.87;;;;;;;-0.37;58.39;99289.91;1734229;80;21441;-90
2021/01/13 09:50:41;;;;;;;12.23;9.53;;;;;;;-0.37;57.65;99276.81;1717328;82;21303;-90
2021/01/13 09:53:54;;;;;;;14.83;10.30;;;;;;;-0.37;57.86;99272.07;1717213;80;21360;-92
2021/01/13 09:57:11;;;;;;;18.33;11.20;;;;;;;-0.34;57.52;99275.23;1713849;81;21304;-89
2021/01/13 10:10:35;;;;;;;16.45;14.75;;;;;;;-0.57;57.49;99236.79;1817249;77;28288;-88
2021/01/13 10:13:04;;;;;;;15.67;11.97;;;;;;;-0.50;57.57;99226.09;1801461;79;21175;-90
2021/01/13 10:15:32;;;;;;;14.90;10.83;;;;;;;-0.74;57.37;99160.35;1798352;79;21819;-88
2021/01/13 10:18:04;;;;;;;20.00;13.73;;;;;;;-0.37;57.60;99218.39;1805804;79;21167;-88
2021/01/13 10:21:23;;;;;;;;;;;;;;;;;;;;;
2021/01/13 10:24:41;;;;;;;20.97;14.10;;;;;;;-0.51;57.86;99210.52;1796556;78;22944;-91
2021/01/13 10:27:32;;;;;;;22.47;15.80;;;;;;;-0.63;58.26;99217.73;1758484;80;21193;-89
2021/01/13 10:30:10;;;;;;;22.53;14.37;;;;;;;-0.67;58.47;99210.66;1726796;80;21322;-91
2021/01/13 10:32:57;;;;;;;21.77;15.70;;;;;;;-0.68;58.68;99205.56;1752263;79;21107;-89
2021/01/13 10:35:38;;;;;;;22.20;14.43;;;;;;;-0.65;58.76;99211.34;1739981;80;21181;-90
2021/01/13 10:38:06;;;;;;;30.57;18.10;;;;;;;-0.66;58.86;99205.78;1726782;79;21109;-89
2021/01/13 10:40:34;;;;;;;22.37;15.93;;;;;;;-0.61;58.91;99192.25;1718434;80;21179;-93
2021/01/13 10:43:21;;;;;;;20.57;14.07;;;;;;;-0.59;58.90;99192.43;1726386;80;21314;-88
2021/01/13 10:45:59;;;;;;;28.47;16.33;;;;;;;-0.54;58.84;99185.47;1731484;80;21286;-92
2021/01/13 10:49:32;;;;;;;;;;;;;;;-0.53;58.97;99176.63;1742657;79;21145;-92
2021/01/13 10:52:49;;;;;;;17.48;11.25;;;;;;;-0.60;59.06;99180.33;1741382;80;20123;-93
2021/01/13 10:56:02;;;;;;;14.63;11.30;;;;;;;-0.67;58.88;99173.20;1714817;81;21173;-92
2021/01/13 10:59:09;;;;;;;14.70;10.37;;;;;;;-0.75;58.92;99162.16;1722228;80;21246;-92
2021/01/13 11:02:27;;;;;;;16.80;10.50;;;;;;;-0.75;58.79;99161.30;1703523;82;21195;-94
2021/01/13 11:05:38;;;;;;;23.30;12.80;;;;;;;-0.80;58.77;99159.14;1704248;82;21080;-93
2021/01/13 11:08:23;;;;;;;13.00;9.87;;;;;;;-0.83;58.61;99149.80;1692740;82;21172;-94
2021/01/13 11:11:14;;;;;;;14.35;10.43;;;;;;;-0.83;58.59;99145.02;1710094;80;21210;-95
2021/01/13 11:13:50;;;;;;;13.00;10.73;;;;;;;-0.83;58.46;99158.10;1688202;82;21363;-91
2021/01/13 11:16:22;;;;;;;15.47;12.50;;;;;;;-0.83;58.18;99141.95;1713525;81;21230;-93
2021/01/13 11:19:02;;;;;;;13.47;9.30;;;;;;;-0.77;58.33;99140.55;1797619;79;23788;-93
2021/01/13 11:21:38;;;;;;;10.17;9.10;;;;;;;-0.84;58.29;99139.47;1759321;81;21233;-93
2021/01/13 11:24:44;;;;;;;14.67;9.63;;;;;;;-0.88;58.37;99140.73;1740456;81;21215;-94
2021/01/13 11:27:39;;;;;;;8.73;7.47;;;;;;;-0.99;58.57;99136.49;1736274;81;21294;-93
2021/01/13 11:30:27;;;;;;;15.43;9.33;;;;;;;-1.05;58.33;99140.51;1730978;81;21177;-91
2021/01/13 11:33:08;;;;;;;14.33;9.73;;;;;;;-1.07;58.46;99120.22;1758348;81;21230;-90
2021/01/13 11:35:41;;;;;;;14.00;9.73;;;;;;;-1.05;58.48;99116.97;1716935;82;21071;-94
2021/01/13 11:38:44;;;;;;;11.23;8.80;;;;;;;-0.99;58.48;99111.16;1687029;83;21116;-91
2021/01/13 11:41:46;;;;;;;10.13;6.50;;;;;;;-1.04;58.15;99114.67;1691352;83;21263;-93
2021/01/13 11:45:09;;;;;;;8.40;7.40;;;;;;;-1.12;58.25;99119.00;1711474;81;21204;-93
2021/01/13 11:48:10;;;;;;;9.37;6.67;;;;;;;-1.16;58.41;99106.69;1720009;81;21155;-91
2021/01/13 11:50:55;;;;;;;9.77;6.83;;;;;;;-1.12;58.47;99104.13;1707164;82;21374;-93
2021/01/13 11:53:36;;;;;;;8.70;6.87;;;;;;;-1.13;58.28;99112.95;1726323;82;21148;-92
2021/01/13 11:56:30;;;;;;;8.47;7.43;;;;;;;-1.19;58.41;99107.81;1718190;82;21281;-91
2021/01/13 11:58:58;;;;;;;10.70;7.47;;;;;;;-1.26;58.61;99096.27;1713336;82;21146;-90
2021/01/13 12:01:29;;;;;;;7.60;6.10;;;;;;;-1.25;58.84;99095.78;1716943;81;21099;-94
2021/01/13 12:04:07;;;;;;;7.00;6.23;;;;;;;-1.23;58.81;99099.07;1694860;82;21103;-89
2021/01/13 12:07:04;;;;;;;6.37;5.77;;;;;;;-1.26;58.83;99099.34;1704791;79;21126;-89
2021/01/13 12:10:15;;;;;;;7.60;5.70;;;;;;;-1.22;58.64;99091.09;1687093;82;21160;-92
2021/01/13 12:13:13;;;;;;;6.53;5.90;;;;;;;-1.17;58.56;99084.11;1704459;83;21162;-89
2021/01/13 12:16:09;;;;;;;6.97;5.90;;;;;;;-1.17;58.60;99071.03;1711898;82;21139;-90
2021/01/13 12:19:15;;;;;;;6.97;6.27;;;;;;;-1.18;58.80;99071.52;1704357;83;21161;-90
2021/01/13 12:22:13;;;;;;;8.50;6.60;;;;;;;-1.19;58.63;99076.89;1666837;83;21175;-89
2021/01/13 12:25:26;;;;;;;5.47;4.30;;;;;;;-1.18;58.51;99066.79;1680267;83;21156;-90
2021/01/13 12:28:35;;;;;;;6.27;5.67;;;;;;;-1.24;58.29;99066.88;1678668;80;21171;-88
2021/01/13 12:31:08;;;;;;;8.70;6.43;;;;;;;-1.28;58.37;99055.06;1684352;83;21251;-91
2021/01/13 12:33:56;;;;;;;12.23;6.30;;;;;;;-1.30;58.61;99040.02;1709305;83;21772;-90
2021/01/13 12:36:47;;;;;;;8.37;5.73;;;;;;;-1.27;58.82;99042.81;1701221;83;21104;-90
2021/01/13 12:39:29;;;;;;;6.17;5.53;;;;;;;-1.26;58.77;99045.75;1743145;82;21132;-92
2021/01/13 12:42:20;;;;;;;5.70;4.70;;;;;;;-1.22;58.83;99047.13;1705390;81;21177;-92
2021/01/13 12:45:12;;;;;;;14.23;8.97;;;;;;;-1.20;58.77;99036.86;1722359;82;21144;-94
2021/01/13 12:48:02;;;;;;;7.13;6.40;;;;;;;-1.16;58.61;99038.70;1695078;83;21337;-91
2021/01/13 12:50:39;;;;;;;9.13;7.17;;;;;;;-1.22;58.85;99039.29;1737683;82;21683;-93
2021/01/13 12:53:38;;;;;;;11.03;7.73;;;;;;;-1.23;59.00;99034.52;1729974;82;21171;-94
2021/01/13 12:56:34;;;;;;;9.13;7.03;;;;;;;-1.11;58.79;99046.09;1741556;81;21167;-91
2021/01/13 12:59:03;;;;;;;8.90;6.80;;;;;;;-1.10;58.64;99030.27;1737318;81;21191;-92
2021/01/13 13:01:43;;;;;;;7.10;6.13;;;;;;;-1.08;58.61;99035.36;1737587;81;21262;-94
2021/01/13 13:04:11;;;;;;;6.83;6.13;;;;;;;-1.06;58.51;99037.34;1722544;83;21203;-91
2021/01/13 13:09:52;;;;;;;10.17;6.03;;;;;;;-0.96;58.23;99023.74;1800998;79;23097;-91
2021/01/13 13:12:31;;;;;;;7.00;5.83;;;;;;;-1.01;58.36;99032.02;1783933;80;21383;-93
2021/01/13 13:15:12;;;;;;;6.13;5.37;;;;;;;-1.03;58.42;99033.14;1755848;80;21172;-94
2021/01/13 13:17:40;;;;;;;7.30;5.33;;;;;;;-0.95;58.05;99042.38;1746696;81;21633;-92
2021/01/13 13:20:12;;;;;;;8.43;6.50;;;;;;;-0.99;58.26;99027.95;1733846;81;21180;-91
2021/01/13 13:22:46;;;;;;;7.87;5.83;;;;;;;-1.01;58.29;99026.78;1729750;81;21199;-89
2021/01/13 13:25:15;;;;;;;9.47;6.20;;;;;;;-0.97;58.28;99036.96;1745902;81;21477;-92
2021/01/13 13:27:45;;;;;;;10.67;8.40;;;;;;;-1.03;58.24;99037.88;1741620;81;21124;-89
2021/01/13 13:30:55;;;;;;;7.67;6.50;;;;;;;-0.97;58.47;99022.08;1794822;79;23125;-91
2021/01/13 13:33:41;;;;;;;10.63;7.60;;;;;;;-1.02;58.55;99025.15;1791502;79;21346;-90
2021/01/13 13:36:12;;;;;;;7.53;6.37;;;;;;;-1.01;58.28;99026.78;1742544;79;21188;-91
2021/01/13 13:38:45;;;;;;;6.80;4.83;;;;;;;-1.05;58.54;99020.70;1717303;82;21130;-91
2021/01/13 13:41:14;;;;;;;8.03;5.60;;;;;;;-1.07;58.58;99023.45;1714718;82;21252;-94
2021/01/13 13:43:44;;;;;;;8.27;7.37;;;;;;;-1.14;58.60;99020.25;1668898;85;21199;-91
2021/01/13 13:46:15;;;;;;;9.67;6.60;;;;;;;-1.16;58.72;99017.78;1674726;84;21214;-91
2021/01/13 13:48:46;;;;;;;8.07;6.40;;;;;;;-1.24;58.95;99017.20;1670178;83;21232;-91
2021/01/13 13:51:41;;;;;;;11.53;7.33;;;;;;;-1.20;58.97;99013.81;1669097;83;21209;-93
2021/01/13 13:54:15;;;;;;;9.40;7.50;;;;;;;-1.22;59.13;99011.34;1671505;84;21216;-92
2021/01/13 13:56:56;;;;;;;13.77;8.67;;;;;;;-1.24;59.24;99009.85;1671354;84;21591;-93
2021/01/13 13:59:49;;;;;;;9.80;7.07;;;;;;;-1.31;59.39;99009.59;1620743;86;21515;-92
2021/01/13 14:02:50;;;;;;;9.10;6.07;;;;;;;-1.35;59.61;99002.20;1634239;85;21242;-90
2021/01/13 14:06:07;;;;;;;6.40;5.70;;;;;;;-1.35;59.99;98999.09;1732949;80;25655;-90
2021/01/13 14:08:42;;;;;;;7.10;5.13;;;;;;;-1.33;60.02;99013.33;1682420;84;21153;-92
2021/01/13 14:12:29;;;;;;;8.13;6.50;;;;;;;-1.25;60.20;98999.05;1792663;77;23521;-91
2021/01/13 14:15:23;;;;;;;8.90;7.30;;;;;;;-1.33;60.16;98999.77;1776508;80;21138;-92
2021/01/13 14:18:17;;;;;;;11.70;7.20;;;;;;;-1.30;60.19;98997.34;1750746;80;21170;-91
2021/01/13 14:21:13;;;;;;;9.03;6.60;;;;;;;-1.29;60.19;98999.00;1708014;79;21183;-91
2021/01/13 14:27:02;;;;;;;11.10;6.90;;;;;;;-1.24;60.55;98987.63;1714111;80;21168;-92
2021/01/13 14:30:21;;;;;;;9.07;8.10;;;;;;;-1.21;60.61;98989.94;1788706;80;27793;-91
2021/01/13 14:33:38;;;;;;;12.30;8.87;;;;;;;-1.25;60.84;98995.94;1776213;80;21665;-94
2021/01/13 14:36:26;;;;;;;12.33;9.20;;;;;;;-1.23;60.76;99010.17;1757687;79;21195;-91
2021/01/13 14:39:07;;;;;;;10.93;7.27;;;;;;;-1.27;60.79;98999.18;1715426;81;21261;-94
2021/01/13 14:42:19;;;;;;;;;;;;;;;;;;;;;
2021/01/13 14:55:18;;;;;;;12.30;7.57;;;;;;;-1.46;61.38;99005.81;1792267;77;23108;-95
2021/01/13 14:57:50;;;;;;;12.53;9.13;;;;;;;-1.52;61.40;99006.39;1796395;78;21113;-91
2021/01/13 15:00:39;;;;;;;9.00;6.70;;;;;;;-1.39;61.43;99002.97;1827471;77;23101;-93
2021/01/13 15:03:07;;;;;;;9.03;6.80;;;;;;;-1.41;61.44;99004.41;1814070;78;21175;-94
2021/01/13 15:06:15;;;;;;;8.43;6.40;;;;;;;-1.40;61.38;99000.81;1757382;79;21199;-93
2021/01/13 15:09:07;;;;;;;11.18;7.78;;;;;;;-1.41;61.42;99000.98;1718377;82;21192;-95
2021/01/13 15:11:50;;;;;;;10.93;7.80;;;;;;;-1.40;61.33;99009.97;1760089;81;21208;-93
2021/01/13 15:14:34;;;;;;;12.83;7.80;;;;;;;-1.47;61.57;99003.69;1741653;82;21200;-93
2021/01/13 15:17:10;;;;;;;9.07;6.53;;;;;;;-1.52;61.74;99007.70;1718016;82;21160;-92
2021/01/13 15:20:13;;;;;;;9.13;8.00;;;;;;;-1.54;61.91;98998.70;1722687;82;21121;-96
2021/01/13 15:23:40;;;;;;;10.40;7.27;;;;;;;-1.55;61.87;98997.03;1721433;81;21287;-94
2021/01/13 15:26:45;;;;;;;9.23;6.77;;;;;;;-1.50;61.84;98991.39;1741540;81;21143;-96
2021/01/13 15:29:59;;;;;;;7.27;5.33;;;;;;;-1.47;61.69;98985.40;1755387;81;21188;-94
2021/01/13 15:33:37;;;;;;;8.67;6.03;;;;;;;-1.49;61.70;98997.76;1751788;82;21180;-94
2021/01/13 15:36:47;;;;;;;10.78;6.72;;;;;;;-2.65;61.58;98803.98;1726002;79;21110;-95
2021/01/13 15:39:40;;;;;;;9.20;7.00;;;;;;;-1.44;61.63;99006.49;1785198;78;21127;-92
2021/01/13 15:42:32;;;;;;;8.67;7.33;;;;;;;-1.51;61.90;98995.77;1718348;79;21151;-94
2021/01/13 15:48:33;;;;;;;14.13;8.33;;;;;;;-1.55;62.49;98999.64;1720455;80;21342;-95
2021/01/13 15:51:15;;;;;;;9.00;7.00;;;;;;;-1.55;62.54;99000.14;1711773;82;21283;-92
2021/01/13 15:54:09;;;;;;;9.77;6.63;;;;;;;-1.51;62.68;98999.70;1732736;82;21290;-95
2021/01/13 15:57:16;;;;;;;;;;;;;;;;;;;;;
2021/01/13 16:00:13;;;;;;;9.83;6.70;;;;;;;-1.50;62.93;98990.09;1716044;81;21199;-93
2021/01/13 16:03:25;;;;;;;7.67;6.17;;;;;;;-1.59;63.06;98995.19;1721740;80;21266;-95
2021/01/13 16:06:58;;;;;;;7.40;6.00;;;;;;;-1.63;63.04;98984.69;1668502;84;21172;-94
2021/01/13 16:10:17;;;;;;;6.47;5.27;;;;;;;-1.66;63.27;98982.84;1681130;84;21226;-95
2021/01/13 16:13:16;;;;;;;10.47;7.57;;;;;;;-1.74;63.62;98980.13;1697174;82;21192;-95
2021/01/13 16:16:18;;;;;;;8.37;4.80;;;;;;;-1.80;63.91;98986.75;1649489;84;21289;-92
2021/01/13 16:19:47;;;;;;;9.23;5.70;;;;;;;-1.85;64.53;98991.08;1673600;80;21298;-93
2021/01/13 16:22:54;;;;;;;6.85;5.40;;;;;;;-1.87;64.61;98993.50;1681176;83;21193;-94
2021/01/13 16:26:02;;;;;;;;;;;;;;;;;;;;;
2021/01/13 16:32:51;;;;;;;8.40;5.23;;;;;;;-1.91;65.16;98983.81;1678251;81;21183;-93
2021/01/13 16:36:09;;;;;;;7.63;5.57;;;;;;;-1.93;65.47;98988.36;1682228;80;21076;-94
2021/01/13 16:45:49;;;;;;;9.03;6.67;;;;;;;-1.96;65.61;98974.27;1698400;81;21390;-89
2021/01/13 16:49:02;;;;;;;7.97;4.77;;;;;;;-1.92;65.58;98978.27;1652580;82;21213;-91
2021/01/13 16:51:33;;;;;;;6.63;4.73;;;;;;;-1.91;65.52;98975.98;1602797;87;21308;-89
2021/01/13 16:57:19;;;;;;;7.27;5.27;;;;;;;-1.85;65.69;98974.09;1840924;76;22356;-92
2021/01/13 17:00:15;;;;;;;7.70;6.17;;;;;;;-1.84;65.43;98978.38;1852953;75;21136;-93
2021/01/13 17:03:01;;;;;;;8.17;6.23;;;;;;;-1.85;65.43;98980.63;1856216;75;21187;-93
2021/01/13 17:05:36;;;;;;;7.93;6.33;;;;;;;-1.83;65.39;98983.11;1839693;75;21064;-93
2021/01/13 17:08:22;;;;;;;6.70;5.57;;;;;;;-1.85;65.42;98975.89;1810285;78;21140;-93
2021/01/13 17:11:03;;;;;;;6.50;5.53;;;;;;;-1.85;65.48;98978.02;1792897;79;21310;-93
2021/01/13 17:14:17;;;;;;;7.40;6.50;;;;;;;-1.83;65.51;98970.89;1792570;78;21151;-92
2021/01/13 17:23:31;;;;;;;10.90;7.50;;;;;;;-2.37;65.08;98878.42;1769722;79;21305;-94
2021/01/13 17:26:04;;;;;;;8.67;6.23;;;;;;;-1.89;65.27;98976.66;1750612;80;21257;-91
2021/01/13 17:28:47;;;;;;;8.90;5.83;;;;;;;-1.86;65.23;98977.69;1791142;79;21096;-96